createdAt,value
2022-08-27T00:01:46.308Z,71.70
2022-08-27T00:04:14.118Z,71.27
2022-08-27T00:06:42.052Z,70.89
2022-08-27T00:09:10.337Z,70.99
2022-08-27T00:11:38.396Z,70.63
2022-08-27T00:14:06.361Z,70.06
2022-08-27T00:16:35.489Z,70.25
2022-08-27T00:19:03.328Z,70.29
2022-08-27T00:21:32.993Z,70.16
2022-08-27T00:24:00.757Z,70.07
2022-08-27T00:26:28.940Z,69.83
2022-08-27T00:28:56.731Z,69.57
2022-08-27T00:31:27.354Z,69.65
2022-08-27T00:33:57.170Z,69.37
2022-08-27T00:36:25.580Z,69.57
2022-08-27T00:38:54.173Z,69.28
2022-08-27T00:41:22.797Z,69.37
2022-08-27T00:43:54.415Z,69.42
2022-08-27T00:46:28.055Z,69.31
2022-08-27T00:49:01.548Z,69.08
2022-08-27T00:51:30.767Z,69.02
2022-08-27T00:53:59.997Z,69.00
2022-08-27T00:56:30.446Z,68.94
2022-08-27T00:58:58.557Z,68.95
2022-08-27T01:01:29.794Z,68.91
2022-08-27T01:04:01.739Z,68.47
2022-08-27T01:06:36.539Z,68.60
2022-08-27T01:09:08.099Z,68.80
2022-08-27T01:11:38.032Z,68.60
2022-08-27T01:14:05.910Z,68.57
2022-08-27T01:16:38.296Z,68.76
2022-08-27T01:19:19.192Z,69.40
2022-08-27T01:21:54.828Z,69.74
2022-08-27T01:24:31.818Z,69.65
2022-08-27T01:27:01.066Z,69.22
2022-08-27T01:29:29.422Z,69.38
2022-08-27T01:32:01.183Z,69.26
2022-08-27T01:34:28.927Z,69.00
2022-08-27T01:36:57.454Z,68.86
2022-08-27T01:39:25.514Z,68.28
2022-08-27T01:41:54.933Z,68.52
2022-08-27T01:44:22.642Z,68.21
2022-08-27T01:46:50.483Z,68.60
2022-08-27T01:49:18.204Z,68.33
2022-08-27T01:51:45.935Z,67.99
2022-08-27T01:54:13.726Z,68.13
2022-08-27T01:56:41.450Z,67.93
2022-08-27T01:59:10.531Z,67.74
2022-08-27T02:01:38.338Z,67.45
2022-08-27T02:04:06.035Z,67.34
2022-08-27T02:06:33.950Z,67.46
2022-08-27T02:09:01.646Z,67.29
2022-08-27T02:11:29.327Z,67.41
2022-08-27T02:13:57.032Z,67.31
2022-08-27T02:16:26.277Z,67.53
2022-08-27T02:18:54.613Z,67.66
2022-08-27T02:21:23.811Z,67.43
2022-08-27T02:23:51.578Z,67.20
2022-08-27T02:26:19.449Z,67.03
2022-08-27T02:28:47.215Z,66.75
2022-08-27T02:31:15.471Z,66.64
2022-08-27T02:33:44.809Z,66.81
2022-08-27T02:36:13.675Z,66.81
2022-08-27T02:38:41.639Z,66.52
2022-08-27T02:41:09.393Z,66.52
2022-08-27T02:43:37.608Z,66.44
2022-08-27T02:46:05.717Z,66.33
2022-08-27T02:48:33.760Z,66.81
2022-08-27T02:51:02.875Z,66.54
2022-08-27T02:53:30.559Z,66.61
2022-08-27T02:55:58.269Z,66.40
2022-08-27T02:58:26.179Z,66.00
2022-08-27T03:00:54.028Z,66.01
2022-08-27T03:03:21.787Z,66.26
2022-08-27T03:05:49.617Z,66.29
2022-08-27T03:08:18.714Z,66.57
2022-08-27T03:10:46.777Z,66.58
2022-08-27T03:13:14.615Z,66.48
2022-08-27T03:15:42.382Z,66.56
2022-08-27T03:18:19.061Z,66.37
2022-08-27T03:20:50.238Z,66.58
2022-08-27T03:23:22.268Z,66.27
2022-08-27T03:25:52.689Z,66.43
2022-08-27T03:28:23.359Z,66.31
2022-08-27T03:30:53.338Z,66.43
2022-08-27T03:33:22.675Z,66.32
2022-08-27T03:35:52.048Z,66.10
2022-08-27T03:38:21.453Z,65.62
2022-08-27T03:40:49.787Z,65.48
2022-08-27T03:43:19.305Z,65.75
2022-08-27T03:46:01.473Z,66.09
2022-08-27T03:48:30.925Z,65.99
2022-08-27T03:50:59.239Z,65.90
2022-08-27T03:53:28.322Z,65.75
2022-08-27T03:55:56.067Z,65.41
2022-08-27T03:58:23.864Z,65.28
2022-08-27T04:00:51.580Z,65.41
2022-08-27T04:03:19.324Z,65.21
2022-08-27T04:05:47.001Z,65.10
2022-08-27T04:08:14.701Z,65.14
2022-08-27T04:10:43.795Z,65.25
2022-08-27T04:13:11.909Z,65.18
2022-08-27T04:15:44.457Z,65.01
2022-08-27T04:18:13.701Z,64.86
2022-08-27T04:20:41.434Z,64.76
2022-08-27T04:23:09.397Z,64.78
2022-08-27T04:25:40.055Z,64.83
2022-08-27T04:28:10.029Z,64.78
2022-08-27T04:30:41.030Z,64.78
2022-08-27T04:33:08.946Z,64.43
2022-08-27T04:35:36.918Z,64.68
2022-08-27T04:38:05.058Z,64.51
2022-08-27T04:40:46.691Z,64.60
2022-08-27T04:43:17.633Z,64.75
2022-08-27T04:45:46.378Z,64.82
2022-08-27T04:48:15.871Z,64.70
2022-08-27T04:50:45.224Z,64.51
2022-08-27T04:53:14.662Z,64.46
2022-08-27T04:55:44.535Z,64.64
2022-08-27T04:58:12.489Z,64.78
2022-08-27T05:00:46.184Z,64.70
2022-08-27T05:03:15.377Z,64.66
2022-08-27T05:05:43.257Z,64.48
2022-08-27T05:08:13.135Z,64.70
2022-08-27T05:10:42.211Z,64.59
2022-08-27T05:13:10.416Z,64.68
2022-08-27T05:15:38.815Z,64.59
2022-08-27T05:18:09.753Z,64.42
2022-08-27T05:20:44.352Z,64.44
2022-08-27T05:23:12.486Z,64.55
2022-08-27T05:25:41.595Z,64.69
2022-08-27T05:28:09.688Z,64.50
2022-08-27T05:30:38.120Z,64.60
2022-08-27T05:33:07.484Z,64.44
2022-08-27T05:35:41.431Z,64.49
2022-08-27T05:38:09.815Z,64.40
2022-08-27T05:40:38.420Z,64.65
2022-08-27T05:43:07.018Z,64.08
2022-08-27T05:45:40.584Z,63.74
2022-08-27T05:48:12.112Z,63.95
2022-08-27T05:50:40.791Z,64.05
2022-08-27T05:53:09.073Z,64.35
2022-08-27T05:55:39.197Z,63.67
2022-08-27T05:58:07.918Z,63.74
2022-08-27T06:01:08.242Z,63.50
2022-08-27T06:03:41.087Z,63.49
2022-08-27T06:06:11.752Z,63.66
2022-08-27T06:08:40.024Z,63.44
2022-08-27T06:11:08.916Z,63.45
2022-08-27T06:13:37.315Z,63.34
2022-08-27T06:16:09.129Z,63.46
2022-08-27T06:18:38.862Z,62.84
2022-08-27T06:21:09.138Z,63.22
2022-08-27T06:23:37.975Z,63.38
2022-08-27T06:26:08.135Z,63.34
2022-08-27T06:28:36.844Z,63.36
2022-08-27T06:31:05.784Z,63.39
2022-08-27T06:33:34.363Z,63.29
2022-08-27T06:36:03.078Z,63.05
2022-08-27T06:38:32.918Z,63.09
2022-08-27T06:41:01.545Z,62.83
2022-08-27T06:43:29.576Z,62.87
2022-08-27T06:45:57.738Z,62.94
2022-08-27T06:48:25.775Z,62.88
2022-08-27T06:50:53.782Z,62.72
2022-08-27T06:53:24.327Z,62.53
2022-08-27T06:55:54.202Z,62.49
2022-08-27T06:58:22.377Z,62.15
2022-08-27T07:00:51.411Z,62.30
2022-08-27T07:03:19.430Z,62.49
2022-08-27T07:05:47.514Z,62.68
2022-08-27T07:08:15.625Z,62.90
2022-08-27T07:10:43.706Z,62.78
2022-08-27T07:13:13.187Z,62.53
2022-08-27T07:15:42.556Z,62.30
2022-08-27T07:18:11.138Z,62.47
2022-08-27T07:20:42.424Z,62.04
2022-08-27T07:23:11.235Z,62.19
2022-08-27T07:25:42.026Z,62.37
2022-08-27T07:28:10.481Z,61.99
2022-08-27T07:30:40.188Z,62.28
2022-08-27T07:33:08.460Z,62.25
2022-08-27T07:35:36.550Z,62.33
2022-08-27T07:38:04.598Z,62.31
2022-08-27T07:40:32.748Z,62.13
2022-08-27T07:43:21.220Z,62.30
2022-08-27T07:45:56.022Z,62.14
2022-08-27T07:48:35.070Z,62.39
2022-08-27T07:51:06.000Z,62.36
2022-08-27T07:53:34.525Z,62.20
2022-08-27T07:56:06.221Z,62.41
2022-08-27T07:58:34.249Z,62.36
2022-08-27T08:01:04.215Z,62.26
2022-08-27T08:03:32.658Z,61.86
2022-08-27T08:06:04.706Z,61.71
2022-08-27T08:08:33.338Z,61.57
2022-08-27T08:11:03.778Z,61.23
2022-08-27T08:13:32.638Z,61.52
2022-08-27T08:16:00.616Z,61.35
2022-08-27T08:18:30.000Z,61.52
2022-08-27T08:21:02.184Z,61.07
2022-08-27T08:23:30.206Z,61.35
2022-08-27T08:25:58.619Z,61.08
2022-08-27T08:28:27.775Z,60.90
2022-08-27T08:30:56.357Z,60.69
2022-08-27T08:33:24.739Z,60.77
2022-08-27T08:35:54.582Z,60.65
2022-08-27T08:38:22.750Z,60.51
2022-08-27T08:40:54.627Z,60.65
2022-08-27T08:43:31.420Z,60.60
2022-08-27T08:46:09.956Z,60.33
2022-08-27T08:48:41.385Z,60.26
2022-08-27T08:51:20.276Z,59.95
2022-08-27T08:53:54.391Z,59.00
2022-08-27T08:56:29.737Z,59.07
2022-08-27T08:59:04.550Z,58.85
2022-08-27T09:01:32.640Z,59.11
2022-08-27T09:04:04.210Z,58.65
2022-08-27T09:06:41.599Z,58.61
2022-08-27T09:09:19.524Z,58.12
2022-08-27T09:11:53.698Z,58.31
2022-08-27T09:14:28.900Z,58.21
2022-08-27T09:17:00.894Z,57.10
2022-08-27T09:19:29.710Z,57.00
2022-08-27T09:22:04.630Z,57.20
2022-08-27T09:24:44.556Z,56.75
2022-08-27T09:27:14.831Z,56.51
2022-08-27T09:29:50.287Z,56.27
2022-08-27T09:32:22.633Z,55.88
2022-08-27T09:34:50.895Z,55.49
2022-08-27T09:37:23.177Z,55.58
2022-08-27T09:40:13.583Z,55.40
2022-08-27T09:42:53.601Z,55.23
2022-08-27T09:45:24.846Z,55.56
2022-08-27T09:47:54.842Z,54.89
2022-08-27T09:50:25.005Z,55.44
2022-08-27T09:52:56.774Z,55.16
2022-08-27T09:55:30.412Z,54.61
2022-08-27T09:57:58.593Z,54.33
2022-08-27T10:00:38.376Z,53.82
2022-08-27T10:03:08.086Z,53.51
2022-08-27T10:05:39.321Z,52.48
2022-08-27T10:08:21.264Z,53.16
2022-08-27T10:10:56.350Z,52.49
2022-08-27T10:13:29.610Z,51.90
2022-08-27T10:16:16.129Z,50.94
2022-08-27T10:18:53.775Z,51.74
2022-08-27T10:21:26.080Z,51.78
2022-08-27T10:24:10.496Z,51.79
2022-08-27T10:26:45.977Z,51.27
2022-08-27T10:29:22.308Z,50.45
2022-08-27T10:32:00.621Z,50.38
2022-08-27T10:34:37.410Z,50.35
2022-08-27T10:37:16.530Z,51.09
2022-08-27T10:40:04.255Z,50.38
2022-08-27T10:42:38.444Z,50.24
2022-08-27T10:45:26.676Z,50.70
2022-08-27T10:48:10.904Z,50.06
2022-08-27T10:50:46.593Z,49.76
2022-08-27T10:53:23.772Z,49.32
2022-08-27T10:55:58.239Z,50.17
2022-08-27T10:58:49.986Z,49.03
2022-08-27T11:01:26.757Z,49.80
2022-08-27T11:03:59.308Z,49.85
2022-08-27T11:06:34.168Z,49.34
2022-08-27T11:09:07.680Z,49.42
2022-08-27T11:12:12.819Z,49.71
2022-08-27T11:14:32.660Z,49.60
2022-08-27T11:17:07.605Z,49.24
2022-08-27T11:19:45.458Z,49.81
2022-08-27T11:22:26.509Z,49.35
2022-08-27T11:24:58.598Z,49.57
2022-08-27T11:27:32.430Z,49.93
2022-08-27T11:30:06.661Z,50.00
2022-08-27T11:32:45.765Z,49.28
2022-08-27T11:35:20.186Z,47.86
2022-08-27T11:38:14.153Z,47.89
2022-08-27T11:40:56.376Z,48.15
2022-08-27T11:43:27.870Z,47.91
2022-08-27T11:45:58.472Z,47.81
2022-08-27T11:48:29.349Z,47.57
2022-08-27T11:50:59.913Z,47.89
2022-08-27T11:53:31.426Z,48.24
2022-08-27T11:56:10.743Z,48.29
2022-08-27T11:58:53.145Z,47.77
2022-08-27T12:01:27.253Z,47.22
2022-08-27T12:04:02.558Z,47.61
2022-08-27T12:06:43.614Z,47.78
2022-08-27T12:09:17.252Z,47.44
2022-08-27T12:11:56.693Z,47.51
2022-08-27T12:14:40.352Z,47.88
2022-08-27T12:17:17.845Z,47.25
2022-08-27T12:20:11.033Z,47.23
2022-08-27T12:23:06.468Z,46.97
2022-08-27T12:25:34.367Z,47.12
2022-08-27T12:28:05.239Z,47.10
2022-08-27T12:30:36.821Z,46.66
2022-08-27T12:33:14.751Z,47.10
2022-08-27T12:35:47.567Z,46.28
2022-08-27T12:38:22.216Z,46.72
2022-08-27T12:41:05.468Z,47.42
2022-08-27T12:43:33.821Z,46.96
2022-08-27T12:46:07.378Z,46.44
2022-08-27T12:48:39.405Z,46.60
2022-08-27T12:51:23.218Z,46.82
2022-08-27T12:53:57.434Z,46.92
2022-08-27T12:56:51.042Z,46.18
2022-08-27T12:59:52.937Z,45.21
2022-08-27T13:02:36.210Z,45.69
2022-08-27T13:05:10.317Z,45.62
2022-08-27T13:07:42.408Z,45.58
2022-08-27T13:10:13.130Z,45.84
2022-08-27T13:12:41.822Z,46.15
2022-08-27T13:15:11.543Z,44.93
2022-08-27T13:17:47.329Z,45.01
2022-08-27T13:20:18.614Z,45.12
2022-08-27T13:22:47.092Z,44.60
2022-08-27T13:25:23.807Z,45.03
2022-08-27T13:27:56.968Z,45.03
2022-08-27T13:30:35.192Z,44.91
2022-08-27T13:33:07.886Z,44.27
2022-08-27T13:35:37.609Z,44.77
2022-08-27T13:38:05.656Z,44.14
2022-08-27T13:40:36.534Z,44.40
2022-08-27T13:43:08.875Z,44.66
2022-08-27T13:45:38.278Z,44.68
2022-08-27T13:48:08.595Z,44.67
2022-08-27T13:50:37.807Z,44.96
2022-08-27T13:53:25.328Z,44.61
2022-08-27T13:55:54.785Z,44.82
2022-08-27T13:58:26.971Z,45.17
2022-08-27T14:00:56.085Z,45.23
2022-08-27T14:03:30.434Z,44.50
2022-08-27T14:05:58.479Z,44.80
2022-08-27T14:08:31.279Z,45.00
2022-08-27T14:11:04.987Z,45.04
2022-08-27T14:13:40.858Z,45.34
2022-08-27T14:16:23.916Z,44.38
2022-08-27T14:18:59.284Z,45.20
2022-08-27T14:21:27.772Z,45.15
2022-08-27T14:23:56.073Z,44.81
2022-08-27T14:26:24.328Z,44.23
2022-08-27T14:28:52.050Z,44.29
2022-08-27T14:31:19.897Z,44.02
2022-08-27T14:33:47.666Z,43.70
2022-08-27T14:36:17.374Z,43.93
2022-08-27T14:38:48.081Z,44.27
2022-08-27T14:41:16.646Z,44.20
2022-08-27T14:43:49.790Z,44.06
2022-08-27T14:46:24.185Z,44.22
2022-08-27T14:48:54.168Z,44.56
2022-08-27T14:51:27.353Z,44.37
2022-08-27T14:53:56.255Z,44.56
2022-08-27T14:56:25.045Z,44.47
2022-08-27T14:58:54.305Z,44.46
2022-08-27T15:01:24.727Z,44.47
2022-08-27T15:03:54.406Z,44.54
2022-08-27T15:06:25.148Z,44.37
2022-08-27T15:08:54.782Z,44.23
2022-08-27T15:11:25.237Z,44.13
2022-08-27T15:13:54.285Z,43.93
2022-08-27T15:16:29.379Z,44.05
2022-08-27T15:19:00.945Z,44.04
2022-08-27T15:21:32.110Z,44.23
2022-08-27T15:24:02.923Z,44.56
2022-08-27T15:26:31.426Z,44.79
2022-08-27T15:29:02.814Z,44.67
2022-08-27T15:31:33.597Z,44.89
2022-08-27T15:34:01.409Z,44.60
2022-08-27T15:36:30.567Z,44.54
2022-08-27T15:38:58.331Z,44.91
2022-08-27T15:41:29.133Z,44.45
2022-08-27T15:43:57.826Z,44.60
2022-08-27T15:46:26.302Z,44.69
2022-08-27T15:48:54.891Z,44.71
2022-08-27T15:51:28.841Z,44.72
2022-08-27T15:53:58.447Z,44.91
2022-08-27T15:56:26.479Z,44.77
2022-08-27T15:58:55.087Z,44.45
2022-08-27T16:01:26.650Z,44.87
2022-08-27T16:03:55.233Z,44.66
2022-08-27T16:06:23.819Z,44.66
2022-08-27T16:08:51.967Z,44.92
2022-08-27T16:11:22.766Z,44.89
2022-08-27T16:13:50.836Z,44.55
2022-08-27T16:16:22.201Z,44.94
2022-08-27T16:18:50.016Z,44.97
2022-08-27T16:21:17.941Z,45.06
2022-08-27T16:23:45.790Z,44.68
2022-08-27T16:26:13.656Z,44.74
2022-08-27T16:28:42.809Z,44.59
2022-08-27T16:31:13.272Z,44.93
2022-08-27T16:33:41.834Z,45.10
2022-08-27T16:36:10.369Z,44.77
2022-08-27T16:38:38.271Z,44.70
2022-08-27T16:41:06.628Z,44.79
2022-08-27T16:43:34.831Z,44.82
2022-08-27T16:46:04.208Z,44.80
2022-08-27T16:48:49.525Z,44.47
2022-08-27T16:51:30.027Z,44.96
2022-08-27T16:54:00.724Z,45.29
2022-08-27T16:56:28.705Z,45.42
2022-08-27T16:58:56.885Z,45.40
2022-08-27T17:01:26.451Z,45.39
2022-08-27T17:04:09.612Z,45.32
2022-08-27T17:06:39.749Z,45.60
2022-08-27T17:09:08.704Z,45.75
2022-08-27T17:11:40.431Z,45.96
2022-08-27T17:14:10.550Z,45.73
2022-08-27T17:16:41.272Z,45.86
2022-08-27T17:19:10.264Z,46.06
2022-08-27T17:21:45.457Z,46.02
2022-08-27T17:24:13.790Z,45.94
2022-08-27T17:26:41.575Z,46.44
2022-08-27T17:29:09.333Z,46.25
2022-08-27T17:31:41.642Z,46.42
2022-08-27T17:34:15.165Z,46.93
2022-08-27T17:36:44.344Z,47.12
2022-08-27T17:39:12.661Z,46.95
2022-08-27T17:41:43.119Z,47.08
2022-08-27T17:44:17.673Z,47.13
2022-08-27T17:46:47.509Z,47.47
2022-08-27T17:49:16.838Z,47.34
2022-08-27T17:51:45.322Z,47.38
2022-08-27T17:54:26.620Z,47.06
2022-08-27T17:56:54.462Z,47.41
2022-08-27T17:59:22.572Z,47.39
2022-08-27T18:01:52.542Z,47.56
2022-08-27T18:04:20.911Z,47.55
2022-08-27T18:06:49.230Z,47.36
2022-08-27T18:09:17.873Z,47.64
2022-08-27T18:11:46.512Z,47.69
2022-08-27T18:14:18.101Z,47.94
2022-08-27T18:16:46.544Z,47.94
2022-08-27T18:19:16.126Z,48.17
2022-08-27T18:21:46.895Z,47.93
2022-08-27T18:24:16.131Z,47.91
2022-08-27T18:26:45.273Z,47.96
2022-08-27T18:29:15.399Z,47.85
2022-08-27T18:31:44.176Z,48.21
2022-08-27T18:34:12.207Z,48.06
2022-08-27T18:36:41.646Z,48.08
2022-08-27T18:39:09.554Z,48.19
2022-08-27T18:41:37.623Z,48.46
2022-08-27T18:46:45.222Z,48.36
2022-08-27T18:49:13.168Z,48.63
2022-08-27T18:51:46.182Z,48.76
2022-08-27T18:54:17.773Z,48.59
2022-08-27T18:56:45.993Z,48.73
2022-08-27T18:59:14.040Z,48.73
2022-08-27T19:01:42.151Z,48.68
2022-08-27T19:04:13.136Z,49.06
2022-08-27T19:06:42.602Z,49.19
2022-08-27T19:09:10.634Z,49.15
2022-08-27T19:11:39.117Z,48.99
2022-08-27T19:14:07.070Z,48.93
2022-08-27T19:16:41.498Z,49.06
2022-08-27T19:19:11.056Z,49.16
2022-08-27T19:21:39.167Z,49.34
2022-08-27T19:24:09.850Z,49.18
2022-08-27T19:26:38.059Z,49.55
2022-08-27T19:29:07.956Z,49.35
2022-08-27T19:31:37.010Z,49.90
2022-08-27T19:34:06.014Z,49.76
2022-08-27T19:36:36.218Z,49.63
2022-08-27T19:39:05.667Z,49.80
2022-08-27T19:41:35.172Z,49.71
2022-08-27T19:44:03.618Z,49.66
2022-08-27T19:46:32.840Z,49.63
2022-08-27T19:49:00.719Z,49.72
2022-08-27T19:51:28.656Z,49.79
2022-08-27T19:53:56.603Z,50.11
2022-08-27T19:56:24.955Z,50.09
2022-08-27T19:58:58.535Z,50.17
2022-08-27T20:01:29.563Z,50.34
2022-08-27T20:03:58.886Z,50.17
2022-08-27T20:06:28.783Z,50.11
2022-08-27T20:08:56.822Z,50.36
2022-08-27T20:11:24.790Z,50.08
2022-08-27T20:13:54.225Z,50.19
2022-08-27T20:16:23.727Z,49.97
2022-08-27T20:18:51.873Z,50.29
2022-08-27T20:21:19.829Z,50.42
2022-08-27T20:23:48.029Z,50.04
2022-08-27T20:26:15.996Z,50.10
2022-08-27T20:28:44.061Z,50.29
2022-08-27T20:31:13.691Z,50.04
2022-08-27T20:33:41.745Z,50.19
2022-08-27T20:36:10.326Z,49.75
2022-08-27T20:38:38.366Z,49.62
2022-08-27T20:41:07.265Z,49.83
2022-08-27T20:43:35.670Z,50.13
2022-08-27T20:46:04.237Z,50.00
2022-08-27T20:48:37.460Z,50.14
2022-08-27T20:51:05.520Z,50.23
2022-08-27T20:53:33.569Z,50.38
2022-08-27T20:56:01.528Z,50.30
2022-08-27T20:58:47.012Z,50.11
2022-08-27T21:01:15.065Z,50.20
2022-08-27T21:03:44.674Z,50.24
2022-08-27T21:06:12.838Z,50.18
2022-08-27T21:08:41.285Z,50.47
2022-08-27T21:11:12.385Z,50.31
2022-08-27T21:13:55.262Z,50.57
2022-08-27T21:16:26.176Z,50.28
2022-08-27T21:18:55.950Z,50.24
2022-08-27T21:21:24.155Z,50.44
2022-08-27T21:23:52.237Z,50.55
2022-08-27T21:26:23.034Z,50.39
2022-08-27T21:28:55.456Z,50.40
2022-08-27T21:31:24.251Z,50.59
2022-08-27T21:33:52.377Z,50.65
2022-08-27T21:36:21.746Z,50.68
2022-08-27T21:38:49.786Z,50.86
2022-08-27T21:41:17.852Z,51.02
2022-08-27T21:43:45.865Z,51.29
2022-08-27T21:46:13.813Z,51.38
2022-08-27T21:48:41.823Z,51.52
2022-08-27T21:51:10.704Z,51.57
2022-08-27T21:53:42.975Z,51.90
2022-08-27T21:56:13.151Z,51.94
2022-08-27T21:58:41.553Z,51.86
2022-08-27T22:01:09.630Z,52.31
2022-08-27T22:03:37.785Z,52.33
2022-08-27T22:06:08.150Z,52.28
2022-08-27T22:08:36.399Z,52.27
2022-08-27T22:11:06.040Z,52.32
2022-08-27T22:13:34.729Z,52.62
2022-08-27T22:16:03.293Z,52.69
2022-08-27T22:18:31.641Z,52.86
2022-08-27T22:21:00.159Z,52.81
2022-08-27T22:23:28.809Z,52.67
2022-08-27T22:26:01.299Z,52.81
2022-08-27T22:28:30.782Z,52.92
2022-08-27T22:30:58.671Z,53.31
2022-08-27T22:33:26.941Z,53.19
2022-08-27T22:35:55.231Z,53.03
2022-08-27T22:38:23.070Z,52.96
2022-08-27T22:40:52.803Z,53.33
2022-08-27T22:43:20.752Z,53.33
2022-08-27T22:45:50.083Z,53.32
2022-08-27T22:48:18.030Z,53.25
2022-08-27T22:50:46.000Z,53.22
2022-08-27T22:53:14.161Z,53.71
2022-08-27T22:55:42.714Z,53.82
2022-08-27T22:58:13.667Z,53.66
2022-08-27T23:00:42.259Z,53.80
2022-08-27T23:03:12.754Z,54.06
2022-08-27T23:05:42.012Z,54.26
2022-08-27T23:08:12.343Z,54.73
2022-08-27T23:10:41.178Z,54.89
2022-08-27T23:13:09.857Z,54.66
2022-08-27T23:15:38.710Z,54.46
2022-08-27T23:18:07.058Z,54.70
2022-08-27T23:20:36.840Z,54.75
2022-08-27T23:23:07.975Z,55.22
2022-08-27T23:25:53.146Z,55.62
2022-08-27T23:28:21.780Z,56.08
2022-08-27T23:30:49.998Z,55.83
2022-08-27T23:33:21.392Z,55.70
2022-08-27T23:35:51.846Z,55.80
2022-08-27T23:38:21.740Z,55.73
2022-08-27T23:40:50.623Z,55.80
2022-08-27T23:43:20.719Z,55.82
2022-08-27T23:45:49.293Z,56.03
2022-08-27T23:48:17.065Z,56.31
2022-08-27T23:50:45.472Z,56.08
2022-08-27T23:53:15.251Z,56.16
2022-08-27T23:55:43.043Z,56.06
2022-08-27T23:58:11.759Z,56.27
